sensor_id;sensor_type;location;lat;lon;timestamp;pressure;altitude;pressure_sealevel;temperature;humidity
26376;BME280;30544;42.196;24.336;2023-11-21T00:02:10;98971.81;;;9.21;62.91
26376;BME280;30544;42.196;24.336;2023-11-21T00:04:36;98967.88;;;9.17;62.49
26376;BME280;30544;42.196;24.336;2023-11-21T00:07:03;98964.19;;;9.00;63.44
26376;BME280;30544;42.196;24.336;2023-11-21T00:09:32;98967.59;;;8.90;63.28
26376;BME280;30544;42.196;24.336;2023-11-21T00:12:00;98969.63;;;8.83;63.58
26376;BME280;30544;42.196;24.336;2023-11-21T00:14:27;98967.09;;;8.82;63.63
26376;BME280;30544;42.196;24.336;2023-11-21T00:16:53;98969.47;;;8.90;63.49
26376;BME280;30544;42.196;24.336;2023-11-21T00:19:20;98972.75;;;8.87;63.17
26376;BME280;30544;42.196;24.336;2023-11-21T00:21:46;98960.13;;;8.79;64.37
26376;BME280;30544;42.196;24.336;2023-11-21T00:24:13;98957.13;;;8.81;64.06
26376;BME280;30544;42.196;24.336;2023-11-21T00:26:41;98965.66;;;8.79;64.15
26376;BME280;30544;42.196;24.336;2023-11-21T00:29:07;98973.22;;;8.72;64.27
26376;BME280;30544;42.196;24.336;2023-11-21T00:31:34;98970.00;;;8.63;65.10
26376;BME280;30544;42.196;24.336;2023-11-21T00:34:02;98968.31;;;8.74;64.96
26376;BME280;30544;42.196;24.336;2023-11-21T00:36:29;98972.16;;;8.73;64.24
26376;BME280;30544;42.196;24.336;2023-11-21T00:38:55;98975.66;;;8.68;65.03
26376;BME280;30544;42.196;24.336;2023-11-21T00:41:22;98972.03;;;8.68;64.38
26376;BME280;30544;42.196;24.336;2023-11-21T00:43:50;98981.56;;;8.60;65.33
26376;BME280;30544;42.196;24.336;2023-11-21T00:46:16;98977.72;;;8.61;64.71
26376;BME280;30544;42.196;24.336;2023-11-21T00:48:42;98981.41;;;8.67;65.09
26376;BME280;30544;42.196;24.336;2023-11-21T00:51:09;98971.78;;;8.69;64.84
26376;BME280;30544;42.196;24.336;2023-11-21T00:53:35;98964.09;;;8.71;65.17
26376;BME280;30544;42.196;24.336;2023-11-21T00:56:02;98969.88;;;8.70;64.45
26376;BME280;30544;42.196;24.336;2023-11-21T00:58:28;98964.09;;;8.71;64.93
26376;BME280;30544;42.196;24.336;2023-11-21T01:00:56;98961.72;;;8.75;64.36
26376;BME280;30544;42.196;24.336;2023-11-21T01:03:23;98960.97;;;8.68;65.27
26376;BME280;30544;42.196;24.336;2023-11-21T01:05:49;98957.97;;;8.69;65.15
26376;BME280;30544;42.196;24.336;2023-11-21T01:08:16;98961.31;;;8.71;64.64
26376;BME280;30544;42.196;24.336;2023-11-21T01:10:42;98957.88;;;8.76;64.90
26376;BME280;30544;42.196;24.336;2023-11-21T01:13:09;98962.16;;;8.84;65.84
26376;BME280;30544;42.196;24.336;2023-11-21T01:15:35;98963.09;;;8.89;65.23
26376;BME280;30544;42.196;24.336;2023-11-21T01:18:04;98958.41;;;8.90;65.12
26376;BME280;30544;42.196;24.336;2023-11-21T01:20:30;98961.44;;;8.88;64.27
26376;BME280;30544;42.196;24.336;2023-11-21T01:22:57;98961.44;;;8.88;64.83
26376;BME280;30544;42.196;24.336;2023-11-21T01:25:24;98966.13;;;8.88;65.07
26376;BME280;30544;42.196;24.336;2023-11-21T01:27:51;98956.16;;;8.87;64.03
26376;BME280;30544;42.196;24.336;2023-11-21T01:30:17;98947.50;;;8.83;64.07
26376;BME280;30544;42.196;24.336;2023-11-21T01:32:44;98956.53;;;8.79;64.33
26376;BME280;30544;42.196;24.336;2023-11-21T01:35:12;98950.91;;;8.73;64.48
26376;BME280;30544;42.196;24.336;2023-11-21T01:37:38;98946.91;;;8.69;64.64
26376;BME280;30544;42.196;24.336;2023-11-21T01:40:05;98960.13;;;8.67;64.61
26376;BME280;30544;42.196;24.336;2023-11-21T01:42:35;98951.75;;;8.62;64.90
26376;BME280;30544;42.196;24.336;2023-11-21T01:45:01;98956.91;;;8.59;64.81
26376;BME280;30544;42.196;24.336;2023-11-21T01:47:30;98952.69;;;8.56;65.55
26376;BME280;30544;42.196;24.336;2023-11-21T01:49:56;98945.59;;;8.49;65.02
26376;BME280;30544;42.196;24.336;2023-11-21T01:52:24;98956.66;;;8.49;65.10
26376;BME280;30544;42.196;24.336;2023-11-21T01:54:51;98951.63;;;8.46;65.50
26376;BME280;30544;42.196;24.336;2023-11-21T01:57:19;98946.34;;;8.44;65.80
26376;BME280;30544;42.196;24.336;2023-11-21T01:59:45;98942.13;;;8.41;65.13
26376;BME280;30544;42.196;24.336;2023-11-21T02:02:14;98940.06;;;8.37;65.40
26376;BME280;30544;42.196;24.336;2023-11-21T02:04:42;98939.94;;;8.32;65.46
26376;BME280;30544;42.196;24.336;2023-11-21T02:07:08;98931.53;;;8.27;65.62
26376;BME280;30544;42.196;24.336;2023-11-21T02:09:36;98932.22;;;8.22;66.26
26376;BME280;30544;42.196;24.336;2023-11-21T02:12:06;98930.19;;;8.18;66.15
26376;BME280;30544;42.196;24.336;2023-11-21T02:14:33;98926.00;;;8.15;65.93
26376;BME280;30544;42.196;24.336;2023-11-21T02:17:00;98919.63;;;8.14;66.55
26376;BME280;30544;42.196;24.336;2023-11-21T02:19:28;98919.03;;;8.12;67.07
26376;BME280;30544;42.196;24.336;2023-11-21T02:21:56;98921.53;;;8.14;66.71
26376;BME280;30544;42.196;24.336;2023-11-21T02:24:26;98912.91;;;8.10;67.67
26376;BME280;30544;42.196;24.336;2023-11-21T02:26:52;98916.97;;;8.20;67.47
26376;BME280;30544;42.196;24.336;2023-11-21T02:29:20;98918.91;;;8.19;66.76
26376;BME280;30544;42.196;24.336;2023-11-21T02:31:47;98917.97;;;8.25;66.71
26376;BME280;30544;42.196;24.336;2023-11-21T02:34:13;98932.38;;;8.27;67.13
26376;BME280;30544;42.196;24.336;2023-11-21T02:36:40;98936.22;;;8.26;66.75
26376;BME280;30544;42.196;24.336;2023-11-21T02:39:07;98928.75;;;8.15;66.53
26376;BME280;30544;42.196;24.336;2023-11-21T02:41:35;98924.78;;;8.23;66.90
26376;BME280;30544;42.196;24.336;2023-11-21T02:44:02;98925.50;;;8.18;67.06
26376;BME280;30544;42.196;24.336;2023-11-21T02:46:28;98927.06;;;8.14;66.64
26376;BME280;30544;42.196;24.336;2023-11-21T02:48:55;98932.94;;;8.18;66.54
26376;BME280;30544;42.196;24.336;2023-11-21T02:51:22;98935.47;;;8.19;66.80
26376;BME280;30544;42.196;24.336;2023-11-21T02:53:49;98931.28;;;8.17;66.07
26376;BME280;30544;42.196;24.336;2023-11-21T02:56:16;98936.19;;;8.14;66.65
26376;BME280;30544;42.196;24.336;2023-11-21T02:58:45;98937.75;;;8.10;66.00
26376;BME280;30544;42.196;24.336;2023-11-21T03:01:11;98935.09;;;8.04;66.46
26376;BME280;30544;42.196;24.336;2023-11-21T03:03:38;98945.19;;;7.98;66.26
26376;BME280;30544;42.196;24.336;2023-11-21T03:06:05;98945.06;;;7.93;66.69
26376;BME280;30544;42.196;24.336;2023-11-21T03:08:31;98941.31;;;7.88;66.69
26376;BME280;30544;42.196;24.336;2023-11-21T03:10:58;98946.72;;;7.82;66.54
26376;BME280;30544;42.196;24.336;2023-11-21T03:13:24;98941.06;;;7.77;66.91
26376;BME280;30544;42.196;24.336;2023-11-21T03:15:52;98939.63;;;7.75;67.21
26376;BME280;30544;42.196;24.336;2023-11-21T03:18:19;98941.16;;;7.71;66.78
26376;BME280;30544;42.196;24.336;2023-11-21T03:20:47;98946.53;;;7.66;67.50
26376;BME280;30544;42.196;24.336;2023-11-21T03:23:14;98949.78;;;7.63;67.61
26376;BME280;30544;42.196;24.336;2023-11-21T03:25:40;98954.09;;;7.59;68.09
26376;BME280;30544;42.196;24.336;2023-11-21T03:28:06;98956.09;;;7.51;67.86
26376;BME280;30544;42.196;24.336;2023-11-21T03:30:34;98955.97;;;7.46;67.83
26376;BME280;30544;42.196;24.336;2023-11-21T03:33:02;98952.00;;;7.42;68.11
26376;BME280;30544;42.196;24.336;2023-11-21T03:35:28;98960.50;;;7.41;68.31
26376;BME280;30544;42.196;24.336;2023-11-21T03:37:55;98969.47;;;7.36;68.21
26376;BME280;30544;42.196;24.336;2023-11-21T03:40:21;98956.38;;;7.32;68.43
26376;BME280;30544;42.196;24.336;2023-11-21T03:42:48;98959.84;;;7.27;68.74
26376;BME280;30544;42.196;24.336;2023-11-21T03:45:14;98976.03;;;7.23;68.70
26376;BME280;30544;42.196;24.336;2023-11-21T03:47:41;98985.44;;;7.16;68.72
26376;BME280;30544;42.196;24.336;2023-11-21T03:50:09;98979.44;;;7.19;69.41
26376;BME280;30544;42.196;24.336;2023-11-21T03:52:36;98965.44;;;7.20;70.09
26376;BME280;30544;42.196;24.336;2023-11-21T03:55:03;98958.63;;;7.23;70.18
26376;BME280;30544;42.196;24.336;2023-11-21T03:57:30;98949.59;;;7.16;70.99
26376;BME280;30544;42.196;24.336;2023-11-21T03:59:56;98944.59;;;7.24;70.85
26376;BME280;30544;42.196;24.336;2023-11-21T04:02:23;98947.13;;;7.26;71.14
26376;BME280;30544;42.196;24.336;2023-11-21T04:04:51;98960.69;;;7.28;70.75
26376;BME280;30544;42.196;24.336;2023-11-21T04:07:18;98959.47;;;7.23;70.48
26376;BME280;30544;42.196;24.336;2023-11-21T04:09:47;98954.38;;;7.20;70.56
26376;BME280;30544;42.196;24.336;2023-11-21T04:12:13;98959.91;;;7.20;70.33
26376;BME280;30544;42.196;24.336;2023-11-21T04:14:40;98966.13;;;7.16;70.57
26376;BME280;30544;42.196;24.336;2023-11-21T04:17:06;98982.31;;;7.12;70.35
26376;BME280;30544;42.196;24.336;2023-11-21T04:19:33;98986.38;;;7.10;70.57
26376;BME280;30544;42.196;24.336;2023-11-21T04:21:59;98992.13;;;7.08;70.26
26376;BME280;30544;42.196;24.336;2023-11-21T04:24:27;98993.56;;;7.11;70.37
26376;BME280;30544;42.196;24.336;2023-11-21T04:26:54;98999.09;;;7.11;70.12
26376;BME280;30544;42.196;24.336;2023-11-21T04:29:20;99003.75;;;7.10;70.09
26376;BME280;30544;42.196;24.336;2023-11-21T04:31:47;98999.09;;;7.11;70.46
26376;BME280;30544;42.196;24.336;2023-11-21T04:34:15;98993.56;;;7.11;70.87
26376;BME280;30544;42.196;24.336;2023-11-21T04:36:41;98986.75;;;7.13;70.77
26376;BME280;30544;42.196;24.336;2023-11-21T04:39:08;98986.50;;;7.15;70.63
26376;BME280;30544;42.196;24.336;2023-11-21T04:41:35;98982.69;;;7.16;70.74
26376;BME280;30544;42.196;24.336;2023-11-21T04:44:04;98992.63;;;7.17;70.32
26376;BME280;30544;42.196;24.336;2023-11-21T04:46:31;98996.47;;;7.16;70.70
26376;BME280;30544;42.196;24.336;2023-11-21T04:48:57;98984.59;;;7.15;70.60
26376;BME280;30544;42.196;24.336;2023-11-21T04:51:24;98983.75;;;7.15;70.43
26376;BME280;30544;42.196;24.336;2023-11-21T04:53:51;98976.56;;;7.14;70.22
26376;BME280;30544;42.196;24.336;2023-11-21T04:56:17;98987.59;;;7.14;70.40
26376;BME280;30544;42.196;24.336;2023-11-21T04:58:45;98983.38;;;7.11;70.38
26376;BME280;30544;42.196;24.336;2023-11-21T05:01:11;98975.34;;;7.10;70.50
26376;BME280;30544;42.196;24.336;2023-11-21T05:03:38;98986.19;;;7.05;70.20
26376;BME280;30544;42.196;24.336;2023-11-21T05:06:05;98974.19;;;6.99;70.33
26376;BME280;30544;42.196;24.336;2023-11-21T05:08:32;98975.03;;;7.00;70.78
26376;BME280;30544;42.196;24.336;2023-11-21T05:10:58;98991.81;;;6.98;70.95
26376;BME280;30544;42.196;24.336;2023-11-21T05:13:25;98991.09;;;7.03;70.80
26376;BME280;30544;42.196;24.336;2023-11-21T05:15:54;98987.28;;;7.04;70.63
26376;BME280;30544;42.196;24.336;2023-11-21T05:18:20;98996.38;;;7.04;70.88
26376;BME280;30544;42.196;24.336;2023-11-21T05:20:47;99001.69;;;7.06;70.85
26376;BME280;30544;42.196;24.336;2023-11-21T05:23:13;98992.34;;;7.07;71.57
26376;BME280;30544;42.196;24.336;2023-11-21T05:25:40;98993.34;;;7.12;71.20
26376;BME280;30544;42.196;24.336;2023-11-21T05:28:07;99000.69;;;7.18;71.16
26376;BME280;30544;42.196;24.336;2023-11-21T05:30:34;98993.47;;;7.17;71.65
26376;BME280;30544;42.196;24.336;2023-11-21T05:33:02;98993.78;;;7.28;71.31
26376;BME280;30544;42.196;24.336;2023-11-21T05:35:28;99000.88;;;7.35;71.26
26376;BME280;30544;42.196;24.336;2023-11-21T05:37:55;99000.41;;;7.38;71.33
26376;BME280;30544;42.196;24.336;2023-11-21T05:40:21;99000.81;;;7.42;70.73
26376;BME280;30544;42.196;24.336;2023-11-21T05:42:49;99002.88;;;7.46;70.91
26376;BME280;30544;42.196;24.336;2023-11-21T05:45:17;98999.41;;;7.51;70.55
26376;BME280;30544;42.196;24.336;2023-11-21T05:47:44;99005.94;;;7.57;70.74
26376;BME280;30544;42.196;24.336;2023-11-21T05:50:12;98995.03;;;7.62;70.59
26376;BME280;30544;42.196;24.336;2023-11-21T05:52:40;98991.22;;;7.74;70.46
26376;BME280;30544;42.196;24.336;2023-11-21T05:55:07;98991.13;;;7.81;70.82
26376;BME280;30544;42.196;24.336;2023-11-21T05:57:34;98982.28;;;7.91;70.78
26376;BME280;30544;42.196;24.336;2023-11-21T06:00:02;98996.44;;;7.94;70.78
26376;BME280;30544;42.196;24.336;2023-11-21T06:02:36;99005.63;;;8.06;70.21
26376;BME280;30544;42.196;24.336;2023-11-21T06:05:02;99013.31;;;8.16;69.83
26376;BME280;30544;42.196;24.336;2023-11-21T06:07:31;99012.25;;;8.29;69.45
26376;BME280;30544;42.196;24.336;2023-11-21T06:09:58;99007.38;;;8.42;69.03
26376;BME280;30544;42.196;24.336;2023-11-21T06:12:24;99010.72;;;8.56;68.39
26376;BME280;30544;42.196;24.336;2023-11-21T06:14:51;99002.69;;;8.66;68.43
26376;BME280;30544;42.196;24.336;2023-11-21T06:17:18;99007.03;;;8.74;68.00
26376;BME280;30544;42.196;24.336;2023-11-21T06:19:45;99007.00;;;8.86;67.20
26376;BME280;30544;42.196;24.336;2023-11-21T06:22:11;99010.13;;;8.89;67.00
26376;BME280;30544;42.196;24.336;2023-11-21T06:24:39;99017.22;;;8.97;66.53
26376;BME280;30544;42.196;24.336;2023-11-21T06:27:07;99007.72;;;9.04;65.47
26376;BME280;30544;42.196;24.336;2023-11-21T06:29:34;99019.91;;;8.92;65.27
26376;BME280;30544;42.196;24.336;2023-11-21T06:32:00;99013.97;;;9.00;65.58
26376;BME280;30544;42.196;24.336;2023-11-21T06:34:28;99010.72;;;9.03;65.50
26376;BME280;30544;42.196;24.336;2023-11-21T06:36:55;99010.72;;;9.15;65.16
26376;BME280;30544;42.196;24.336;2023-11-21T06:39:21;99006.28;;;9.02;64.97
26376;BME280;30544;42.196;24.336;2023-11-21T06:41:49;99004.59;;;9.01;64.34
26376;BME280;30544;42.196;24.336;2023-11-21T06:44:16;99004.38;;;8.91;65.28
26376;BME280;30544;42.196;24.336;2023-11-21T06:46:42;98997.13;;;8.90;65.32
26376;BME280;30544;42.196;24.336;2023-11-21T06:49:10;98999.56;;;8.98;65.29
26376;BME280;30544;42.196;24.336;2023-11-21T06:51:37;99008.31;;;9.07;64.77
26376;BME280;30544;42.196;24.336;2023-11-21T06:54:03;99003.75;;;9.00;64.94
26376;BME280;30544;42.196;24.336;2023-11-21T06:56:30;99012.13;;;9.17;64.92
26376;BME280;30544;42.196;24.336;2023-11-21T06:58:58;99012.22;;;9.34;65.08
26376;BME280;30544;42.196;24.336;2023-11-21T07:01:24;99020.50;;;9.46;64.87
26376;BME280;30544;42.196;24.336;2023-11-21T07:03:51;99015.31;;;9.49;64.02
26376;BME280;30544;42.196;24.336;2023-11-21T07:06:17;99026.00;;;9.57;64.23
26376;BME280;30544;42.196;24.336;2023-11-21T07:08:43;99015.97;;;9.68;63.52
26376;BME280;30544;42.196;24.336;2023-11-21T07:11:10;99019.59;;;9.57;63.68
26376;BME280;30544;42.196;24.336;2023-11-21T07:13:37;99015.28;;;9.61;64.09
26376;BME280;30544;42.196;24.336;2023-11-21T07:16:05;99010.94;;;9.65;63.27
26376;BME280;30544;42.196;24.336;2023-11-21T07:18:35;99014.50;;;9.77;63.02
26376;BME280;30544;42.196;24.336;2023-11-21T07:21:01;99015.03;;;9.91;62.78
26376;BME280;30544;42.196;24.336;2023-11-21T07:23:28;99014.97;;;10.03;63.08
26376;BME280;30544;42.196;24.336;2023-11-21T07:25:55;99014.91;;;10.14;62.21
26376;BME280;30544;42.196;24.336;2023-11-21T07:28:22;99017.16;;;10.17;62.10
26376;BME280;30544;42.196;24.336;2023-11-21T07:30:50;99021.16;;;10.21;61.53
26376;BME280;30544;42.196;24.336;2023-11-21T07:33:19;99020.31;;;10.21;61.84
26376;BME280;30544;42.196;24.336;2023-11-21T07:35:46;99015.03;;;10.36;61.32
26376;BME280;30544;42.196;24.336;2023-11-21T07:38:13;99018.91;;;10.35;61.53
26376;BME280;30544;42.196;24.336;2023-11-21T07:40:39;99007.22;;;10.33;61.55
26376;BME280;30544;42.196;24.336;2023-11-21T07:43:06;99012.78;;;10.50;61.76
26376;BME280;30544;42.196;24.336;2023-11-21T07:45:32;99018.75;;;10.59;61.24
26376;BME280;30544;42.196;24.336;2023-11-21T07:47:59;99019.22;;;10.55;61.19
26376;BME280;30544;42.196;24.336;2023-11-21T07:50:27;99018.31;;;10.67;61.34
26376;BME280;30544;42.196;24.336;2023-11-21T07:52:53;99013.84;;;10.82;60.63
26376;BME280;30544;42.196;24.336;2023-11-21T07:55:20;99016.00;;;10.97;60.86
26376;BME280;30544;42.196;24.336;2023-11-21T07:57:47;99008.59;;;11.03;60.10
26376;BME280;30544;42.196;24.336;2023-11-21T08:00:14;99012.06;;;10.93;59.73
26376;BME280;30544;42.196;24.336;2023-11-21T08:02:40;99009.69;;;11.02;60.36
26376;BME280;30544;42.196;24.336;2023-11-21T08:05:07;99005.19;;;11.18;59.13
26376;BME280;30544;42.196;24.336;2023-11-21T08:07:35;99011.09;;;11.43;58.57
26376;BME280;30544;42.196;24.336;2023-11-21T08:10:04;99015.38;;;11.56;58.02
26376;BME280;30544;42.196;24.336;2023-11-21T08:12:31;99005.56;;;11.70;57.82
26376;BME280;30544;42.196;24.336;2023-11-21T08:14:57;99006.22;;;11.77;57.98
26376;BME280;30544;42.196;24.336;2023-11-21T08:17:24;99001.84;;;11.81;58.09
26376;BME280;30544;42.196;24.336;2023-11-21T08:19:50;99001.09;;;11.91;58.01
26376;BME280;30544;42.196;24.336;2023-11-21T08:22:17;99005.50;;;11.87;58.18
26376;BME280;30544;42.196;24.336;2023-11-21T08:24:45;99008.44;;;12.02;58.14
26376;BME280;30544;42.196;24.336;2023-11-21T08:27:12;99006.91;;;12.11;57.72
26376;BME280;30544;42.196;24.336;2023-11-21T08:29:40;99015.00;;;12.18;57.77
26376;BME280;30544;42.196;24.336;2023-11-21T08:32:07;99000.88;;;12.24;57.18
26376;BME280;30544;42.196;24.336;2023-11-21T08:34:33;99003.25;;;12.43;56.67
26376;BME280;30544;42.196;24.336;2023-11-21T08:37:00;98999.34;;;12.39;56.89
26376;BME280;30544;42.196;24.336;2023-11-21T08:39:26;98996.97;;;12.52;56.49
26376;BME280;30544;42.196;24.336;2023-11-21T08:41:54;98995.69;;;12.65;56.26
26376;BME280;30544;42.196;24.336;2023-11-21T08:44:21;98992.28;;;12.58;54.81
26376;BME280;30544;42.196;24.336;2023-11-21T08:46:48;98978.97;;;12.60;54.93
26376;BME280;30544;42.196;24.336;2023-11-21T08:49:14;98977.72;;;12.83;54.24
26376;BME280;30544;42.196;24.336;2023-11-21T08:51:43;98972.28;;;13.08;54.19
26376;BME280;30544;42.196;24.336;2023-11-21T08:54:10;98967.16;;;13.27;52.56
26376;BME280;30544;42.196;24.336;2023-11-21T08:56:37;98960.78;;;13.37;51.99
26376;BME280;30544;42.196;24.336;2023-11-21T08:59:05;98965.84;;;13.55;52.08
26376;BME280;30544;42.196;24.336;2023-11-21T09:01:33;98957.28;;;13.67;51.47
26376;BME280;30544;42.196;24.336;2023-11-21T09:03:59;98956.75;;;13.85;51.16
26376;BME280;30544;42.196;24.336;2023-11-21T09:06:26;98960.13;;;13.97;50.71
26376;BME280;30544;42.196;24.336;2023-11-21T09:08:52;98947.31;;;14.17;50.34
26376;BME280;30544;42.196;24.336;2023-11-21T09:11:19;98933.38;;;14.27;49.35
26376;BME280;30544;42.196;24.336;2023-11-21T09:13:45;98935.06;;;14.38;49.22
26376;BME280;30544;42.196;24.336;2023-11-21T09:16:13;98922.22;;;14.37;48.81
26376;BME280;30544;42.196;24.336;2023-11-21T09:18:40;98928.06;;;14.40;48.88
26376;BME280;30544;42.196;24.336;2023-11-21T09:21:07;98925.56;;;14.69;48.06
26376;BME280;30544;42.196;24.336;2023-11-21T09:23:33;98924.69;;;14.89;48.16
26376;BME280;30544;42.196;24.336;2023-11-21T09:26:00;98904.56;;;14.97;47.10
26376;BME280;30544;42.196;24.336;2023-11-21T09:28:26;98905.97;;;15.00;47.60
26376;BME280;30544;42.196;24.336;2023-11-21T09:30:53;98913.44;;;15.10;47.18
26376;BME280;30544;42.196;24.336;2023-11-21T09:33:21;98910.94;;;15.08;47.33
26376;BME280;30544;42.196;24.336;2023-11-21T09:35:50;98908.09;;;15.23;47.47
26376;BME280;30544;42.196;24.336;2023-11-21T09:38:17;98905.53;;;15.37;46.98
26376;BME280;30544;42.196;24.336;2023-11-21T09:40:44;98899.81;;;15.57;46.52
26376;BME280;30544;42.196;24.336;2023-11-21T09:43:13;98891.97;;;15.70;46.66
26376;BME280;30544;42.196;24.336;2023-11-21T09:45:43;98891.63;;;15.76;46.17
26376;BME280;30544;42.196;24.336;2023-11-21T09:48:12;98880.34;;;15.91;45.25
26376;BME280;30544;42.196;24.336;2023-11-21T09:50:40;98870.78;;;16.03;45.87
26376;BME280;30544;42.196;24.336;2023-11-21T09:53:09;98872.94;;;16.11;44.19
26376;BME280;30544;42.196;24.336;2023-11-21T09:55:41;98874.69;;;16.02;44.07
26376;BME280;30544;42.196;24.336;2023-11-21T09:58:09;98869.59;;;16.09;43.81
26376;BME280;30544;42.196;24.336;2023-11-21T10:00:37;98866.44;;;16.20;43.25
26376;BME280;30544;42.196;24.336;2023-11-21T10:03:05;98870.94;;;16.16;44.00
26376;BME280;30544;42.196;24.336;2023-11-21T10:05:32;98864.09;;;16.33;43.38
26376;BME280;30544;42.196;24.336;2023-11-21T10:08:00;98867.31;;;16.16;43.83
26376;BME280;30544;42.196;24.336;2023-11-21T10:10:27;98864.16;;;16.22;44.01
26376;BME280;30544;42.196;24.336;2023-11-21T10:12:54;98857.63;;;16.03;43.95
26376;BME280;30544;42.196;24.336;2023-11-21T10:15:22;98852.63;;;16.29;43.83
26376;BME280;30544;42.196;24.336;2023-11-21T10:17:50;98847.53;;;16.36;44.43
26376;BME280;30544;42.196;24.336;2023-11-21T10:20:18;98847.19;;;16.43;43.17
26376;BME280;30544;42.196;24.336;2023-11-21T10:22:45;98839.59;;;16.48;43.45
26376;BME280;30544;42.196;24.336;2023-11-21T10:25:13;98838.28;;;16.65;42.79
26376;BME280;30544;42.196;24.336;2023-11-21T10:27:40;98841.78;;;16.80;41.56
26376;BME280;30544;42.196;24.336;2023-11-21T10:30:08;98825.69;;;16.91;42.33
26376;BME280;30544;42.196;24.336;2023-11-21T10:32:37;98820.91;;;16.92;41.27
26376;BME280;30544;42.196;24.336;2023-11-21T10:35:03;98820.56;;;16.98;40.59
26376;BME280;30544;42.196;24.336;2023-11-21T10:37:35;98815.50;;;17.00;40.11
26376;BME280;30544;42.196;24.336;2023-11-21T10:40:03;98814.97;;;16.98;39.95
26376;BME280;30544;42.196;24.336;2023-11-21T10:42:32;98813.06;;;17.12;39.82
26376;BME280;30544;42.196;24.336;2023-11-21T10:44:59;98807.13;;;17.19;39.24
26376;BME280;30544;42.196;24.336;2023-11-21T10:47:28;98795.91;;;17.19;39.58
26376;BME280;30544;42.196;24.336;2023-11-21T10:49:54;98782.03;;;17.09;39.50
26376;BME280;30544;42.196;24.336;2023-11-21T10:52:21;98771.88;;;17.13;39.88
26376;BME280;30544;42.196;24.336;2023-11-21T10:54:47;98774.88;;;17.22;40.71
26376;BME280;30544;42.196;24.336;2023-11-21T10:57:15;98754.13;;;17.23;40.33
26376;BME280;30544;42.196;24.336;2023-11-21T10:59:46;98743.34;;;17.30;40.26
26376;BME280;30544;42.196;24.336;2023-11-21T11:02:15;98737.38;;;17.36;39.88
26376;BME280;30544;42.196;24.336;2023-11-21T11:04:46;98731.31;;;17.29;40.43
26376;BME280;30544;42.196;24.336;2023-11-21T11:07:13;98718.91;;;17.35;40.61
26376;BME280;30544;42.196;24.336;2023-11-21T11:09:41;98706.03;;;17.34;40.12
26376;BME280;30544;42.196;24.336;2023-11-21T11:12:09;98695.19;;;17.28;40.67
26376;BME280;30544;42.196;24.336;2023-11-21T11:14:36;98693.09;;;17.20;40.92
26376;BME280;30544;42.196;24.336;2023-11-21T11:17:04;98699.81;;;17.37;40.99
26376;BME280;30544;42.196;24.336;2023-11-21T11:19:33;98692.84;;;17.35;40.79
26376;BME280;30544;42.196;24.336;2023-11-21T11:22:03;98696.94;;;17.24;41.43
26376;BME280;30544;42.196;24.336;2023-11-21T11:24:37;98698.47;;;17.16;42.46
26376;BME280;30544;42.196;24.336;2023-11-21T11:27:12;98696.94;;;17.24;42.93
26376;BME280;30544;42.196;24.336;2023-11-21T11:29:46;98707.00;;;17.25;42.09
26376;BME280;30544;42.196;24.336;2023-11-21T11:32:19;98709.59;;;17.21;42.20
26376;BME280;30544;42.196;24.336;2023-11-21T11:34:49;98695.88;;;17.38;42.30
26376;BME280;30544;42.196;24.336;2023-11-21T11:37:20;98680.50;;;17.36;42.24
26376;BME280;30544;42.196;24.336;2023-11-21T11:39:48;98675.41;;;17.38;42.02
26376;BME280;30544;42.196;24.336;2023-11-21T11:42:16;98669.72;;;17.43;42.20
26376;BME280;30544;42.196;24.336;2023-11-21T11:44:50;98669.72;;;17.43;42.01
26376;BME280;30544;42.196;24.336;2023-11-21T11:47:26;98670.22;;;17.31;41.71
26376;BME280;30544;42.196;24.336;2023-11-21T11:49:58;98685.28;;;17.17;41.79
26376;BME280;30544;42.196;24.336;2023-11-21T11:52:32;98688.75;;;17.08;42.16
26376;BME280;30544;42.196;24.336;2023-11-21T11:54:59;98682.50;;;17.17;42.32
26376;BME280;30544;42.196;24.336;2023-11-21T11:57:25;98690.38;;;17.14;42.95
26376;BME280;30544;42.196;24.336;2023-11-21T12:00:11;98689.28;;;17.10;42.67
26376;BME280;30544;42.196;24.336;2023-11-21T12:02:43;98700.19;;;17.12;42.33
26376;BME280;30544;42.196;24.336;2023-11-21T12:05:10;98699.00;;;17.18;41.92
26376;BME280;30544;42.196;24.336;2023-11-21T12:07:45;98707.41;;;17.18;42.12
26376;BME280;30544;42.196;24.336;2023-11-21T12:10:15;98712.81;;;17.28;41.13
26376;BME280;30544;42.196;24.336;2023-11-21T12:12:43;98709.28;;;17.04;41.90
26376;BME280;30544;42.196;24.336;2023-11-21T12:15:11;98701.78;;;17.18;41.50
26376;BME280;30544;42.196;24.336;2023-11-21T12:17:38;98702.31;;;17.20;41.83
26376;BME280;30544;42.196;24.336;2023-11-21T12:20:06;98696.56;;;17.30;41.46
26376;BME280;30544;42.196;24.336;2023-11-21T12:22:41;98693.59;;;17.22;41.21
26376;BME280;30544;42.196;24.336;2023-11-21T12:25:08;98672.47;;;17.10;41.07
26376;BME280;30544;42.196;24.336;2023-11-21T12:27:34;98656.91;;;17.04;41.74
26376;BME280;30544;42.196;24.336;2023-11-21T12:30:01;98663.72;;;16.98;41.58
26376;BME280;30544;42.196;24.336;2023-11-21T12:32:30;98665.59;;;17.03;41.63
26376;BME280;30544;42.196;24.336;2023-11-21T12:34:57;98649.09;;;17.01;42.15
26376;BME280;30544;42.196;24.336;2023-11-21T12:37:25;98645.69;;;17.04;41.63
26376;BME280;30544;42.196;24.336;2023-11-21T12:39:51;98639.47;;;17.07;41.89
26376;BME280;30544;42.196;24.336;2023-11-21T12:42:19;98643.63;;;17.10;42.03
26376;BME280;30544;42.196;24.336;2023-11-21T12:44:46;98663.53;;;17.08;42.53
26376;BME280;30544;42.196;24.336;2023-11-21T12:47:16;98663.41;;;17.00;42.37
26376;BME280;30544;42.196;24.336;2023-11-21T12:49:43;98664.91;;;16.92;42.07
26376;BME280;30544;42.196;24.336;2023-11-21T12:52:09;98659.09;;;16.89;42.80
26376;BME280;30544;42.196;24.336;2023-11-21T12:54:38;98665.00;;;16.87;42.54
26376;BME280;30544;42.196;24.336;2023-11-21T12:57:04;98657.34;;;16.93;42.47